createdAt,value
2023-02-20T00:00:36.491Z,20.20
2023-02-20T00:03:22.690Z,20.73
2023-02-20T00:06:08.236Z,21.13
2023-02-20T00:08:53.263Z,22.63
2023-02-20T00:11:38.209Z,22.53
2023-02-20T00:14:23.614Z,22.83
2023-02-20T00:17:08.996Z,25.20
2023-02-20T00:19:54.551Z,24.23
2023-02-20T00:22:39.956Z,24.97
2023-02-20T00:25:24.933Z,25.13
2023-02-20T00:28:10.262Z,25.57
2023-02-20T00:30:56.754Z,26.20
2023-02-20T00:33:42.443Z,24.13
2023-02-20T00:36:27.745Z,25.13
2023-02-20T00:39:13.566Z,22.83
2023-02-20T00:41:59.043Z,24.47
2023-02-20T00:44:44.320Z,20.83
2023-02-20T00:47:29.603Z,20.80
2023-02-20T00:50:16.588Z,22.00
2023-02-20T00:53:01.703Z,20.00
2023-02-20T00:55:47.123Z,18.27
2023-02-20T00:58:32.314Z,18.57
2023-02-20T01:01:17.769Z,18.10
2023-02-20T01:04:03.337Z,19.83
2023-02-20T01:06:48.863Z,19.37
2023-02-20T01:09:33.856Z,18.50
2023-02-20T01:12:18.724Z,18.50
2023-02-20T01:15:06.267Z,18.87
2023-02-20T01:17:51.501Z,19.43
2023-02-20T01:20:37.056Z,19.90
2023-02-20T01:23:22.631Z,20.37
2023-02-20T01:26:07.553Z,22.30
2023-02-20T01:28:52.942Z,23.10
2023-02-20T01:31:38.121Z,22.10
2023-02-20T01:34:23.118Z,20.83
2023-02-20T01:37:13.464Z,23.37
2023-02-20T01:39:58.529Z,24.10
2023-02-20T01:42:43.825Z,24.20
2023-02-20T01:45:37.625Z,23.23
2023-02-20T01:48:25.543Z,24.10
2023-02-20T01:51:10.833Z,23.70
2023-02-20T01:53:56.290Z,23.50
2023-02-20T01:56:41.850Z,20.53
2023-02-20T01:59:31.724Z,18.73
2023-02-20T02:02:17.333Z,18.23
2023-02-20T02:05:03.031Z,18.10
2023-02-20T02:07:48.246Z,18.23
2023-02-20T02:10:43.755Z,18.03
2023-02-20T02:13:32.946Z,18.33
2023-02-20T02:16:46.053Z,18.00
2023-02-20T02:19:48.035Z,15.97
2023-02-20T02:22:50.566Z,15.90
2023-02-20T02:26:03.620Z,17.10
2023-02-20T02:29:04.719Z,16.00
2023-02-20T02:32:08.903Z,15.70
2023-02-20T02:34:57.148Z,14.87
2023-02-20T02:38:20.945Z,15.70
2023-02-20T02:41:30.654Z,16.37
2023-02-20T02:44:18.453Z,15.50
2023-02-20T02:47:11.743Z,13.47
2023-02-20T02:50:10.795Z,15.80
2023-02-20T02:52:57.182Z,14.73
2023-02-20T02:55:42.119Z,14.97
2023-02-20T02:58:27.395Z,15.47
2023-02-20T03:01:13.360Z,15.83
2023-02-20T03:04:00.396Z,15.87
2023-02-20T03:06:47.210Z,16.77
2023-02-20T03:09:42.293Z,16.40
2023-02-20T03:12:27.950Z,14.07
2023-02-20T03:15:30.179Z,15.97
2023-02-20T03:18:26.923Z,14.73
2023-02-20T03:21:17.037Z,16.20
2023-02-20T03:24:04.304Z,15.97
2023-02-20T03:26:53.126Z,17.10
2023-02-20T03:29:39.422Z,15.23
2023-02-20T03:32:27.945Z,14.13
2023-02-20T03:35:15.131Z,15.20
2023-02-20T03:38:04.235Z,15.60
2023-02-20T03:40:51.582Z,15.97
2023-02-20T03:43:39.472Z,16.53
2023-02-20T03:46:26.003Z,16.17
2023-02-20T03:49:13.877Z,16.57
2023-02-20T03:51:59.395Z,15.63
2023-02-20T03:54:45.132Z,15.77
2023-02-20T03:57:37.308Z,15.53
2023-02-20T04:00:27.018Z,17.93
2023-02-20T04:03:20.611Z,16.97
2023-02-20T04:06:08.832Z,16.90
2023-02-20T04:09:10.891Z,17.13
2023-02-20T04:12:02.787Z,17.00
2023-02-20T04:14:49.944Z,17.03
2023-02-20T04:18:01.881Z,17.33
2023-02-20T04:20:52.664Z,15.63
2023-02-20T04:23:43.332Z,17.40
2023-02-20T04:26:28.673Z,15.40
2023-02-20T04:29:14.118Z,14.57
2023-02-20T04:31:59.203Z,15.43
2023-02-20T04:34:45.082Z,15.57
2023-02-20T04:37:30.177Z,13.30
2023-02-20T04:40:17.805Z,13.17
2023-02-20T04:43:03.135Z,13.73
2023-02-20T04:45:48.311Z,12.73
2023-02-20T04:48:33.818Z,14.00
2023-02-20T04:51:19.005Z,11.87
2023-02-20T04:54:04.618Z,13.13
2023-02-20T04:56:50.283Z,13.53
2023-02-20T04:59:35.650Z,13.00
2023-02-20T05:02:21.012Z,12.60
2023-02-20T05:05:14.871Z,13.40
2023-02-20T05:08:02.286Z,13.30
2023-02-20T05:10:47.628Z,12.80
2023-02-20T05:13:32.862Z,13.27
2023-02-20T05:16:18.069Z,13.13
2023-02-20T05:19:03.438Z,11.10
2023-02-20T05:21:48.641Z,11.73
2023-02-20T05:24:34.034Z,12.00
2023-02-20T05:27:21.518Z,11.93
2023-02-20T05:30:07.707Z,11.83
2023-02-20T05:32:52.585Z,12.27
2023-02-20T05:35:38.033Z,11.93
2023-02-20T05:38:23.494Z,11.33
2023-02-20T05:41:08.946Z,11.23
2023-02-20T05:43:54.536Z,11.40
2023-02-20T05:46:41.408Z,10.03
2023-02-20T05:49:27.463Z,11.90
2023-02-20T05:52:12.770Z,12.20
2023-02-20T05:54:57.775Z,11.90
2023-02-20T05:57:43.319Z,12.17
2023-02-20T06:00:28.645Z,11.67
2023-02-20T06:03:15.719Z,12.37
2023-02-20T06:06:00.715Z,12.20
2023-02-20T06:08:46.575Z,10.93
2023-02-20T06:11:31.991Z,12.40
2023-02-20T06:14:21.129Z,13.43
2023-02-20T06:17:06.258Z,12.40
2023-02-20T06:19:51.766Z,10.90
2023-02-20T06:22:37.168Z,13.00
2023-02-20T06:25:22.854Z,12.97
2023-02-20T06:28:08.036Z,12.43
2023-02-20T06:30:53.424Z,12.53
2023-02-20T06:33:38.834Z,12.00
2023-02-20T06:36:27.758Z,12.60
2023-02-20T06:39:13.902Z,13.47
2023-02-20T06:41:58.989Z,13.27
2023-02-20T06:44:44.189Z,12.67
2023-02-20T06:47:29.605Z,13.97
2023-02-20T06:50:15.157Z,13.40
2023-02-20T06:53:00.599Z,14.83
2023-02-20T06:55:45.641Z,33.47
2023-02-20T06:58:31.306Z,17.87
2023-02-20T07:01:17.616Z,20.83
2023-02-20T07:04:03.023Z,24.40
2023-02-20T07:06:48.265Z,27.60
2023-02-20T07:09:33.456Z,26.80
2023-02-20T07:12:18.854Z,28.30
2023-02-20T07:15:06.082Z,35.37
2023-02-20T07:17:51.316Z,33.63
2023-02-20T07:20:36.585Z,34.80
2023-02-20T07:23:22.651Z,34.30
2023-02-20T07:26:07.814Z,36.50
2023-02-20T07:28:54.923Z,35.17
2023-02-20T07:31:40.263Z,36.77
2023-02-20T07:34:25.556Z,37.30
2023-02-20T07:37:11.167Z,36.07
2023-02-20T07:39:56.455Z,40.07
2023-02-20T07:42:41.956Z,39.90
2023-02-20T07:45:27.398Z,39.90
2023-02-20T07:48:13.050Z,37.10
2023-02-20T07:50:58.246Z,40.33
2023-02-20T07:53:51.649Z,40.77
2023-02-20T07:56:36.729Z,42.87
2023-02-20T07:59:22.794Z,34.80
2023-02-20T08:02:07.837Z,39.10
2023-02-20T08:04:53.278Z,47.67
2023-02-20T08:07:38.923Z,38.17
2023-02-20T08:10:27.054Z,40.73
2023-02-20T08:13:12.291Z,42.17
2023-02-20T08:15:57.588Z,42.33
2023-02-20T08:18:43.174Z,35.27
2023-02-20T08:21:28.376Z,37.93
2023-02-20T08:24:13.280Z,32.33
2023-02-20T08:26:59.316Z,37.67
2023-02-20T08:29:45.764Z,37.57
2023-02-20T08:32:31.104Z,38.17
2023-02-20T08:35:16.921Z,36.23
2023-02-20T08:38:06.973Z,39.00
2023-02-20T08:40:52.265Z,40.13
2023-02-20T08:43:39.535Z,38.13
2023-02-20T08:46:24.964Z,38.43
2023-02-20T08:49:10.130Z,39.53
2023-02-20T08:51:56.042Z,34.43
2023-02-20T08:54:45.315Z,39.77
2023-02-20T08:57:30.658Z,36.83
2023-02-20T09:00:16.025Z,37.50
2023-02-20T09:03:01.401Z,40.40
2023-02-20T09:05:47.007Z,41.43
2023-02-20T09:08:32.081Z,41.13
2023-02-20T09:11:18.052Z,40.23
2023-02-20T09:14:03.490Z,38.10
2023-02-20T09:16:52.100Z,36.17
2023-02-20T09:19:37.253Z,38.50
2023-02-20T09:22:23.798Z,37.67
2023-02-20T09:25:11.525Z,35.10
2023-02-20T09:27:56.672Z,37.73
2023-02-20T09:30:41.873Z,36.63
2023-02-20T09:33:29.435Z,37.27
2023-02-20T09:36:15.158Z,38.90
2023-02-20T09:39:00.462Z,39.63
2023-02-20T09:41:56.985Z,38.73
2023-02-20T09:44:50.224Z,33.30
2023-02-20T09:48:02.803Z,34.53
2023-02-20T09:50:53.685Z,35.83
2023-02-20T09:53:55.004Z,25.33
2023-02-20T09:56:51.990Z,30.87
2023-02-20T10:00:04.531Z,33.50
2023-02-20T10:03:05.665Z,37.17
2023-02-20T10:05:51.204Z,32.73
2023-02-20T10:08:36.496Z,35.27
2023-02-20T10:11:31.587Z,35.10
2023-02-20T10:14:23.068Z,37.63
2023-02-20T10:17:23.284Z,34.17
2023-02-20T10:20:23.148Z,36.93
2023-02-20T10:23:14.591Z,36.07
2023-02-20T10:26:13.719Z,35.73
2023-02-20T10:29:16.089Z,35.30
2023-02-20T10:32:09.612Z,36.20
2023-02-20T10:35:04.217Z,34.70
2023-02-20T10:37:55.248Z,36.90
2023-02-20T10:40:58.029Z,35.50
2023-02-20T10:44:02.284Z,32.07
2023-02-20T10:47:00.516Z,35.63
2023-02-20T10:49:58.164Z,34.97
2023-02-20T10:52:52.591Z,20.37
2023-02-20T10:55:50.331Z,33.67
2023-02-20T10:58:49.923Z,35.33
2023-02-20T11:01:37.214Z,37.93
2023-02-20T11:04:52.014Z,38.03
2023-02-20T11:07:37.510Z,38.80
2023-02-20T11:10:22.331Z,38.03
2023-02-20T11:13:16.025Z,40.23
2023-02-20T11:16:01.613Z,28.13
2023-02-20T11:18:48.953Z,38.33
2023-02-20T11:21:40.826Z,37.87
2023-02-20T11:24:31.768Z,39.60
2023-02-20T11:27:20.577Z,39.87
2023-02-20T11:30:18.472Z,38.77
2023-02-20T11:33:09.925Z,40.13
2023-02-20T11:36:20.529Z,39.10
2023-02-20T11:39:25.493Z,37.77
2023-02-20T11:42:15.138Z,39.10
2023-02-20T11:45:25.187Z,37.93
2023-02-20T11:48:12.155Z,38.93
2023-02-20T11:50:57.537Z,39.00
2023-02-20T11:53:43.054Z,38.43
2023-02-20T11:56:28.336Z,39.60
2023-02-20T11:59:28.143Z,37.93
2023-02-20T12:02:23.321Z,39.77
2023-02-20T12:05:13.943Z,38.53
2023-02-20T12:07:59.875Z,39.03
2023-02-20T12:10:48.154Z,39.93
2023-02-20T12:13:45.724Z,35.17
2023-02-20T12:16:30.497Z,34.67
2023-02-20T12:19:26.960Z,37.47
2023-02-20T12:22:20.949Z,39.10
2023-02-20T12:25:26.154Z,37.20
2023-02-20T12:28:18.853Z,36.93
2023-02-20T12:31:30.927Z,37.97
2023-02-20T12:34:28.053Z,38.67
2023-02-20T12:37:19.064Z,36.40
2023-02-20T12:40:24.419Z,37.17
2023-02-20T12:43:18.695Z,36.87
2023-02-20T12:46:25.023Z,34.57
2023-02-20T12:49:51.692Z,38.47
2023-02-20T12:52:51.206Z,37.00
2023-02-20T12:56:04.759Z,34.83
2023-02-20T12:59:07.319Z,35.67
2023-02-20T13:01:54.482Z,36.50
2023-02-20T13:04:46.720Z,36.23
2023-02-20T13:07:44.407Z,33.30
2023-02-20T13:10:48.926Z,32.10
2023-02-20T13:13:58.924Z,33.27
2023-02-20T13:16:57.675Z,34.87
2023-02-20T13:20:10.771Z,32.40
2023-02-20T13:23:00.352Z,34.03
2023-02-20T13:25:47.093Z,33.77
2023-02-20T13:28:38.084Z,30.10
2023-02-20T13:31:35.580Z,29.27
2023-02-20T13:34:30.263Z,30.33
2023-02-20T13:37:33.977Z,27.87
2023-02-20T13:40:28.508Z,27.57
2023-02-20T13:43:26.476Z,27.00
2023-02-20T13:46:15.056Z,26.67
2023-02-20T13:49:00.342Z,27.60
2023-02-20T13:51:45.246Z,28.23
2023-02-20T13:54:33.847Z,28.33
2023-02-20T13:57:19.212Z,28.20
2023-02-20T14:00:23.308Z,27.23
2023-02-20T14:03:19.908Z,26.47
2023-02-20T14:06:17.803Z,26.53
2023-02-20T14:09:09.323Z,33.83
2023-02-20T14:12:01.621Z,26.47
2023-02-20T14:14:47.230Z,24.53
2023-02-20T14:17:35.287Z,25.27
2023-02-20T14:20:25.121Z,22.63
2023-02-20T14:23:20.066Z,21.33
2023-02-20T14:26:18.499Z,22.10
2023-02-20T14:29:18.699Z,23.23
2023-02-20T14:32:05.022Z,23.90
2023-02-20T14:35:01.367Z,23.70
2023-02-20T14:37:58.847Z,23.33
2023-02-20T14:40:44.820Z,24.00
2023-02-20T14:43:30.263Z,23.37
2023-02-20T14:46:23.155Z,24.67
2023-02-20T14:49:14.584Z,24.70
2023-02-20T14:52:15.157Z,24.83
2023-02-20T14:55:03.152Z,25.87
2023-02-20T14:57:49.235Z,25.37
2023-02-20T15:00:36.761Z,27.00
2023-02-20T15:03:31.577Z,27.23
2023-02-20T15:06:17.386Z,27.33
2023-02-20T15:09:16.344Z,29.67
2023-02-20T15:12:07.840Z,30.03
2023-02-20T15:15:00.506Z,29.87
2023-02-20T15:17:45.835Z,26.33
2023-02-20T15:20:38.021Z,28.27
2023-02-20T15:23:29.771Z,28.13
2023-02-20T15:26:34.718Z,26.37
2023-02-20T15:29:27.898Z,30.03
2023-02-20T15:32:23.556Z,25.63
2023-02-20T15:35:18.294Z,30.67
2023-02-20T15:38:08.000Z,29.00
2023-02-20T15:40:59.113Z,27.20
2023-02-20T15:43:49.932Z,25.93
2023-02-20T15:46:37.786Z,28.53
2023-02-20T15:49:22.943Z,32.33
2023-02-20T15:52:15.563Z,30.97
2023-02-20T15:55:00.771Z,30.83
2023-02-20T15:57:47.557Z,30.20
2023-02-20T16:00:33.448Z,30.63
2023-02-20T16:03:18.477Z,34.43
2023-02-20T16:06:04.100Z,32.97
2023-02-20T16:08:49.465Z,33.90
2023-02-20T16:11:45.341Z,36.03
2023-02-20T16:14:30.623Z,38.37
2023-02-20T16:17:23.524Z,38.03
2023-02-20T16:20:17.591Z,33.53
2023-02-20T16:23:02.687Z,39.07
2023-02-20T16:25:48.259Z,39.57
2023-02-20T16:28:33.816Z,39.40
2023-02-20T16:31:19.020Z,41.13
2023-02-20T16:34:08.098Z,40.33
2023-02-20T16:36:59.633Z,41.00
2023-02-20T16:39:45.232Z,42.97
2023-02-20T16:42:33.714Z,44.93
2023-02-20T16:45:20.062Z,44.70
2023-02-20T16:48:15.273Z,47.63
2023-02-20T16:51:00.484Z,46.57
2023-02-20T16:53:45.673Z,50.40
2023-02-20T16:56:31.351Z,47.77
2023-02-20T16:59:16.657Z,51.63
2023-02-20T17:02:02.228Z,43.67
2023-02-20T17:04:48.257Z,46.17
2023-02-20T17:07:33.466Z,49.10
2023-02-20T17:10:19.210Z,43.27
2023-02-20T17:13:04.361Z,46.23
2023-02-20T17:15:49.998Z,41.47
2023-02-20T17:18:35.234Z,52.83
2023-02-20T17:21:20.594Z,49.87
2023-02-20T17:24:06.512Z,47.33
2023-02-20T17:26:51.792Z,47.43
2023-02-20T17:29:37.275Z,52.13
2023-02-20T17:32:22.727Z,50.30
2023-02-20T17:35:08.913Z,52.17
2023-02-20T17:37:54.087Z,46.70
2023-02-20T17:40:40.724Z,51.53
2023-02-20T17:43:26.097Z,52.20
2023-02-20T17:46:12.068Z,51.73
2023-02-20T17:48:57.139Z,53.77
2023-02-20T17:51:43.464Z,49.97
2023-02-20T17:54:30.819Z,53.60
2023-02-20T17:57:18.336Z,48.10
2023-02-20T18:00:06.724Z,52.93
2023-02-20T18:02:52.083Z,51.47
2023-02-20T18:05:37.579Z,44.17
2023-02-20T18:08:22.875Z,54.10
2023-02-20T18:11:08.314Z,50.97
2023-02-20T18:13:54.744Z,52.30
2023-02-20T18:16:40.316Z,52.57
2023-02-20T18:19:26.315Z,52.53
2023-02-20T18:22:11.995Z,51.87
2023-02-20T18:24:56.700Z,51.57
2023-02-20T18:27:42.068Z,43.80
2023-02-20T18:30:27.629Z,53.57
2023-02-20T18:33:13.956Z,49.53
2023-02-20T18:36:07.852Z,50.97
2023-02-20T18:38:53.950Z,49.67
2023-02-20T18:41:40.406Z,54.50
2023-02-20T18:44:25.633Z,52.63
2023-02-20T18:47:11.009Z,53.40
2023-02-20T18:49:56.326Z,54.27
2023-02-20T18:52:44.170Z,49.17
2023-02-20T18:55:29.493Z,54.63
2023-02-20T18:58:14.933Z,54.57
2023-02-20T19:01:00.451Z,45.73
2023-02-20T19:03:51.433Z,52.83
2023-02-20T19:06:37.454Z,51.97
2023-02-20T19:09:24.204Z,55.37
2023-02-20T19:12:09.495Z,55.77
2023-02-20T19:14:55.472Z,55.53
2023-02-20T19:17:40.842Z,56.93
2023-02-20T19:20:29.293Z,55.90
2023-02-20T19:23:14.592Z,55.77
2023-02-20T19:25:59.724Z,56.97
2023-02-20T19:28:45.154Z,58.60
2023-02-20T19:31:30.653Z,55.03
2023-02-20T19:34:15.880Z,55.87
2023-02-20T19:37:02.939Z,57.97
2023-02-20T19:39:48.548Z,56.37
2023-02-20T19:42:35.017Z,54.10
2023-02-20T19:45:20.223Z,56.20
2023-02-20T19:48:05.720Z,55.47
2023-02-20T19:50:50.820Z,54.17
2023-02-20T19:53:35.936Z,42.90
2023-02-20T19:56:21.274Z,55.33
2023-02-20T19:59:06.595Z,51.37
2023-02-20T20:01:54.378Z,52.90
2023-02-20T20:04:40.370Z,56.20
2023-02-20T20:07:25.774Z,49.43
2023-02-20T20:10:12.033Z,54.77
2023-02-20T20:12:57.378Z,55.33
2023-02-20T20:15:42.563Z,55.50
2023-02-20T20:18:28.145Z,53.67
2023-02-20T20:21:13.601Z,54.03
2023-02-20T20:23:58.937Z,55.37
2023-02-20T20:26:44.011Z,61.43
2023-02-20T20:29:29.472Z,59.70
2023-02-20T20:32:16.327Z,57.77
2023-02-20T20:35:02.096Z,61.57
2023-02-20T20:37:47.209Z,60.83
2023-02-20T20:40:32.566Z,63.20
2023-02-20T20:43:17.860Z,59.97
2023-02-20T20:46:04.237Z,60.17
2023-02-20T20:48:49.688Z,62.13
2023-02-20T20:51:35.060Z,60.77
2023-02-20T20:54:20.678Z,59.30
2023-02-20T20:57:06.226Z,60.67
2023-02-20T20:59:51.843Z,60.40
2023-02-20T21:02:37.152Z,60.90
2023-02-20T21:05:25.479Z,62.83
2023-02-20T21:08:10.933Z,61.60
2023-02-20T21:10:56.396Z,64.23
2023-02-20T21:13:46.331Z,64.33
2023-02-20T21:16:32.132Z,61.60
2023-02-20T21:19:17.208Z,61.40
2023-02-20T21:22:02.993Z,59.63
2023-02-20T21:24:48.600Z,62.00
2023-02-20T21:27:33.737Z,62.57
2023-02-20T21:30:20.544Z,61.93
2023-02-20T21:33:05.666Z,60.67
2023-02-20T21:35:50.986Z,61.80
2023-02-20T21:38:37.472Z,59.93
2023-02-20T21:41:24.116Z,63.17
2023-02-20T21:44:21.110Z,58.80
2023-02-20T21:47:09.646Z,59.03
2023-02-20T21:49:54.838Z,63.70
2023-02-20T21:52:40.219Z,64.53
2023-02-20T21:55:25.630Z,62.67
2023-02-20T21:58:11.051Z,63.30
2023-02-20T22:00:56.280Z,64.27
2023-02-20T22:03:41.680Z,61.40
2023-02-20T22:06:27.807Z,67.23
2023-02-20T22:09:14.855Z,60.37
2023-02-20T22:12:00.159Z,65.57
2023-02-20T22:14:45.550Z,62.60
2023-02-20T22:17:30.806Z,62.77
2023-02-20T22:20:16.366Z,63.23
2023-02-20T22:23:03.083Z,63.37
2023-02-20T22:25:48.484Z,64.47
2023-02-20T22:28:34.033Z,60.57
2023-02-20T22:31:19.539Z,66.00
2023-02-20T22:34:04.808Z,64.60
2023-02-20T22:36:50.172Z,67.53
2023-02-20T22:39:35.520Z,60.73
2023-02-20T22:42:29.619Z,63.13
2023-02-20T22:45:19.164Z,63.03
2023-02-20T22:48:04.861Z,65.03
2023-02-20T22:50:49.814Z,63.83
2023-02-20T22:53:35.232Z,64.77
2023-02-20T22:56:22.254Z,61.47
2023-02-20T22:59:07.565Z,63.60
2023-02-20T23:01:53.158Z,62.63
2023-02-20T23:04:38.406Z,60.47
2023-02-20T23:07:23.822Z,64.70
2023-02-20T23:10:10.167Z,64.63
2023-02-20T23:12:55.523Z,62.07
2023-02-20T23:15:40.622Z,62.13
2023-02-20T23:18:26.190Z,61.30
2023-02-20T23:21:11.565Z,60.53
2023-02-20T23:23:56.924Z,61.97
2023-02-20T23:26:42.339Z,60.83
2023-02-20T23:29:27.915Z,61.50
2023-02-20T23:32:13.381Z,60.90
2023-02-20T23:34:58.682Z,59.63
2023-02-20T23:37:44.000Z,59.50
2023-02-20T23:40:36.525Z,61.40
2023-02-20T23:43:22.907Z,64.10
2023-02-20T23:46:07.973Z,65.27
2023-02-20T23:48:53.162Z,63.87
2023-02-20T23:51:38.602Z,65.30
2023-02-20T23:54:24.000Z,68.57
2023-02-20T23:57:09.363Z,66.23
2023-02-20T23:59:54.794Z,62.67
